createdAt,value
2023-03-08T00:00:33.917Z,99574.91
2023-03-08T00:03:02.820Z,99576.84
2023-03-08T00:05:30.712Z,99580.34
2023-03-08T00:07:58.633Z,99581.44
2023-03-08T00:10:28.019Z,99570.59
2023-03-08T00:12:56.232Z,99573.28
2023-03-08T00:15:24.123Z,99578.72
2023-03-08T00:17:52.034Z,99574.34
2023-03-08T00:20:19.989Z,99575.19
2023-03-08T00:22:48.203Z,99575.19
2023-03-08T00:25:17.000Z,99576.84
2023-03-08T00:27:46.259Z,99575.75
2023-03-08T00:30:14.498Z,99576.00
2023-03-08T00:32:42.774Z,99574.34
2023-03-08T00:35:10.940Z,99576.84
2023-03-08T00:37:38.879Z,99590.63
2023-03-08T00:40:08.164Z,99583.31
2023-03-08T00:42:36.370Z,99580.59
2023-03-08T00:45:08.163Z,99575.19
2023-03-08T00:47:37.570Z,99578.94
2023-03-08T00:50:06.084Z,99577.06
2023-03-08T00:52:34.318Z,99574.34
2023-03-08T00:55:02.208Z,99567.03
2023-03-08T00:57:31.420Z,99554.53
2023-03-08T01:00:00.336Z,99551.22
2023-03-08T01:02:29.893Z,99542.03
2023-03-08T01:04:58.173Z,99543.69
2023-03-08T01:07:28.503Z,99549.09
2023-03-08T01:09:56.856Z,99551.00
2023-03-08T01:12:25.437Z,99546.41
2023-03-08T01:14:53.449Z,99540.97
2023-03-08T01:17:21.293Z,99533.88
2023-03-08T01:19:50.569Z,99533.88
2023-03-08T01:22:18.786Z,99524.94
2023-03-08T01:24:46.774Z,99524.09
2023-03-08T01:27:14.682Z,99527.06
2023-03-08T01:29:42.577Z,99524.09
2023-03-08T01:32:10.890Z,99527.91
2023-03-08T01:34:38.829Z,99534.13
2023-03-08T01:37:08.215Z,99523.28
2023-03-08T01:39:36.101Z,99523.03
2023-03-08T01:42:07.098Z,99522.22
2023-03-08T01:44:50.680Z,99521.38
2023-03-08T01:47:19.417Z,99515.97
2023-03-08T01:49:47.293Z,99517.63
2023-03-08T01:52:17.807Z,99505.09
2023-03-08T01:54:47.143Z,99503.81
2023-03-08T01:57:17.727Z,99500.28
2023-03-08T01:59:46.051Z,99503.81
2023-03-08T02:02:14.231Z,99509.47
2023-03-08T02:04:42.100Z,99488.59
2023-03-08T02:07:10.025Z,99476.09
2023-03-08T02:09:39.282Z,99466.06
2023-03-08T02:12:08.592Z,99461.97
2023-03-08T02:14:36.517Z,99454.38
2023-03-08T02:17:04.419Z,99450.03
2023-03-08T02:19:35.206Z,99464.41
2023-03-08T02:22:09.367Z,99457.94
2023-03-08T02:24:38.595Z,99466.06
2023-03-08T02:27:09.324Z,99428.31
2023-03-08T02:29:37.208Z,99456.03
2023-03-08T02:32:05.867Z,99460.63
2023-03-08T02:34:33.873Z,99467.13
2023-03-08T02:37:01.798Z,99468.78
2023-03-08T02:39:29.702Z,99460.63
2023-03-08T02:41:59.285Z,99461.47
2023-03-08T02:44:27.236Z,99456.03
2023-03-08T02:46:55.140Z,99451.69
2023-03-08T02:49:23.061Z,99447.06
2023-03-08T02:51:51.212Z,99437.03
2023-03-08T02:54:19.129Z,99424.31
2023-03-08T02:56:47.536Z,99429.97
2023-03-08T02:59:16.772Z,99435.16
2023-03-08T03:01:44.970Z,99429.97
2023-03-08T03:04:13.015Z,99422.66
2023-03-08T03:06:40.898Z,99431.31
2023-03-08T03:09:08.980Z,99425.38
2023-03-08T03:11:37.235Z,99416.41
2023-03-08T03:14:05.141Z,99413.97
2023-03-08T03:16:34.483Z,99410.16
2023-03-08T03:19:02.412Z,99403.91
2023-03-08T03:21:30.593Z,99405.56
2023-03-08T03:23:58.478Z,99400.94
2023-03-08T03:26:26.499Z,99403.91
2023-03-08T03:28:56.975Z,99393.88
2023-03-08T03:31:25.237Z,99383.84
2023-03-08T03:33:54.570Z,99370.56
2023-03-08T03:36:22.765Z,99373.28
2023-03-08T03:38:50.711Z,99381.13
2023-03-08T03:41:19.907Z,99384.13
2023-03-08T03:43:47.866Z,99383.03
2023-03-08T03:46:16.970Z,99376.78
2023-03-08T03:48:44.888Z,99381.41
2023-03-08T03:51:15.296Z,99384.13
2023-03-08T03:53:43.213Z,99374.34
2023-03-08T03:56:12.500Z,99370.56
2023-03-08T03:58:40.374Z,99373.28
2023-03-08T04:01:09.266Z,99364.31
2023-03-08T04:03:37.239Z,99358.63
2023-03-08T04:06:08.932Z,99352.38
2023-03-08T04:08:42.109Z,99347.53
2023-03-08T04:11:10.487Z,99351.28
2023-03-08T04:13:38.477Z,99351.28
2023-03-08T04:16:12.934Z,99343.16
2023-03-08T04:18:40.864Z,99336.34
2023-03-08T04:21:09.026Z,99345.88
2023-03-08T04:23:38.547Z,99335.03
2023-03-08T04:26:06.827Z,99330.41
2023-03-08T04:28:34.860Z,99331.47
2023-03-08T04:31:12.936Z,99329.03
2023-03-08T04:33:40.860Z,99319.00
2023-03-08T04:36:09.273Z,99311.94
2023-03-08T04:38:38.629Z,99312.75
2023-03-08T04:41:11.863Z,99305.69
2023-03-08T04:43:40.319Z,99301.09
2023-03-08T04:46:08.253Z,99299.44
2023-03-08T04:48:36.231Z,99292.94
2023-03-08T04:51:05.304Z,99283.16
2023-03-08T04:53:33.292Z,99289.41
2023-03-08T04:56:02.835Z,99282.94
2023-03-08T04:58:30.796Z,99276.41
2023-03-08T05:00:59.501Z,99271.25
2023-03-08T05:03:27.471Z,99262.03
2023-03-08T05:05:56.411Z,99262.84
2023-03-08T05:08:24.406Z,99255.78
2023-03-08T05:10:59.598Z,99251.19
2023-03-08T05:13:30.772Z,99252.00
2023-03-08T05:15:58.725Z,99240.34
2023-03-08T05:18:26.708Z,99238.44
2023-03-08T05:20:56.548Z,99233.81
2023-03-08T05:23:24.627Z,99230.28
2023-03-08T05:25:55.770Z,99228.41
2023-03-08T05:28:23.806Z,99224.06
2023-03-08T05:31:04.361Z,99225.13
2023-03-08T05:33:32.372Z,99215.94
2023-03-08T05:36:00.307Z,99215.94
2023-03-08T05:38:28.252Z,99207.22
2023-03-08T05:40:56.439Z,99203.97
2023-03-08T05:43:24.309Z,99203.16
2023-03-08T05:46:02.368Z,99193.41
2023-03-08T05:48:30.443Z,99191.50
2023-03-08T05:50:58.744Z,99189.88
2023-03-08T05:53:26.952Z,99183.94
2023-03-08T05:55:55.610Z,99174.16
2023-03-08T05:58:23.496Z,99172.25
2023-03-08T06:00:51.717Z,99166.59
2023-03-08T06:03:21.062Z,99160.91
2023-03-08T06:05:48.980Z,99151.94
2023-03-08T06:08:17.041Z,99137.00
2023-03-08T06:10:45.229Z,99141.34
2023-03-08T06:13:13.153Z,99133.22
2023-03-08T06:15:41.127Z,99125.59
2023-03-08T06:18:09.020Z,99117.19
2023-03-08T06:20:40.000Z,99109.63
2023-03-08T06:23:07.942Z,99105.25
2023-03-08T06:25:35.978Z,99099.00
2023-03-08T06:28:03.960Z,99093.34
2023-03-08T06:30:32.001Z,99093.09
2023-03-08T06:33:00.239Z,99088.75
2023-03-08T06:35:28.199Z,99086.03
2023-03-08T06:37:57.674Z,99070.81
2023-03-08T06:40:25.550Z,99069.16
2023-03-08T06:42:53.783Z,99068.94
2023-03-08T06:45:21.736Z,99070.56
2023-03-08T06:47:49.625Z,99058.91
2023-03-08T06:50:18.225Z,99049.94
2023-03-08T06:52:46.381Z,99044.75
2023-03-08T06:55:15.695Z,99038.25
2023-03-08T06:57:43.637Z,99040.16
2023-03-08T07:00:13.329Z,99034.72
2023-03-08T07:02:41.477Z,99026.84
2023-03-08T07:05:10.278Z,99021.41
2023-03-08T07:07:39.718Z,99020.34
2023-03-08T07:10:08.889Z,99014.91
2023-03-08T07:12:40.349Z,99012.47
2023-03-08T07:15:10.498Z,99000.25
2023-03-08T07:17:38.424Z,99011.38
2023-03-08T07:20:07.409Z,99003.25
2023-03-08T07:22:35.760Z,98999.72
2023-03-08T07:25:03.688Z,98990.78
2023-03-08T07:27:31.598Z,98991.56
2023-03-08T07:30:00.887Z,98993.22
2023-03-08T07:32:29.308Z,98997.81
2023-03-08T07:34:57.376Z,98991.31
2023-03-08T07:37:25.298Z,98987.53
2023-03-08T07:39:53.161Z,98994.88
2023-03-08T07:42:21.379Z,98991.31
2023-03-08T07:44:49.450Z,98982.13
2023-03-08T07:47:18.753Z,98975.28
2023-03-08T07:49:46.716Z,98972.34
2023-03-08T07:52:14.932Z,98969.63
2023-03-08T07:54:43.793Z,98956.88
2023-03-08T07:57:13.965Z,98959.59
2023-03-08T07:59:41.891Z,98953.34
2023-03-08T08:02:11.065Z,98948.94
2023-03-08T08:04:40.408Z,98945.47
2023-03-08T08:07:08.380Z,98952.53
2023-03-08T08:09:37.447Z,98951.72
2023-03-08T08:12:06.362Z,98947.94
2023-03-08T08:14:34.311Z,98940.03
2023-03-08T08:17:02.199Z,98934.38
2023-03-08T08:19:31.983Z,98930.00
2023-03-08T08:22:01.652Z,98933.53
2023-03-08T08:24:30.868Z,98916.44
2023-03-08T08:26:58.777Z,98911.03
2023-03-08T08:29:26.730Z,98907.25
2023-03-08T08:31:55.274Z,98894.19
2023-03-08T08:34:23.185Z,98892.03
2023-03-08T08:36:51.081Z,98890.13
2023-03-08T08:39:20.395Z,98892.84
2023-03-08T08:41:50.796Z,98882.00
2023-03-08T08:44:18.723Z,98874.69
2023-03-08T08:46:46.584Z,98873.88
2023-03-08T08:49:14.488Z,98869.25
2023-03-08T08:51:42.838Z,98872.78
2023-03-08T08:54:10.805Z,98869.25
2023-03-08T08:56:43.041Z,98870.09
2023-03-08T08:59:11.204Z,98860.31
2023-03-08T09:01:43.499Z,98858.41
2023-03-08T09:04:12.463Z,98849.47
2023-03-08T09:06:40.457Z,98843.22
2023-03-08T09:09:08.383Z,98844.84
2023-03-08T09:11:48.510Z,98844.03
2023-03-08T09:14:22.913Z,98832.09
2023-03-08T09:16:50.881Z,98837.78
2023-03-08T09:19:18.870Z,98838.59
2023-03-08T09:21:47.200Z,98837.78
2023-03-08T09:24:15.109Z,98825.03
2023-03-08T09:26:42.994Z,98835.91
2023-03-08T09:29:11.388Z,98832.34
2023-03-08T09:31:42.398Z,98826.94
2023-03-08T09:34:11.678Z,98832.09
2023-03-08T09:36:40.420Z,98825.63
2023-03-08T09:39:08.899Z,98815.00
2023-03-08T09:41:48.185Z,98800.63
2023-03-08T09:44:45.930Z,98792.50
2023-03-08T09:47:18.736Z,98800.63
2023-03-08T09:49:47.735Z,98799.81
2023-03-08T09:52:18.010Z,98808.75
2023-03-08T09:54:46.095Z,98803.34
2023-03-08T09:57:16.135Z,98801.44
2023-03-08T09:59:46.956Z,98799.56
2023-03-08T10:02:23.402Z,98788.13
2023-03-08T10:05:10.248Z,98798.75
2023-03-08T10:07:46.896Z,98785.19
2023-03-08T10:10:23.460Z,98790.59
2023-03-08T10:12:57.671Z,98786.25
2023-03-08T10:15:26.075Z,98782.47
2023-03-08T10:17:57.064Z,98776.22
2023-03-08T10:20:26.309Z,98776.22
2023-03-08T10:22:57.659Z,98766.16
2023-03-08T10:25:27.005Z,98775.97
2023-03-08T10:27:56.109Z,98779.50
2023-03-08T10:30:24.872Z,98777.84
2023-03-08T10:32:56.802Z,98782.22
2023-03-08T10:35:32.956Z,98777.59
2023-03-08T10:38:01.017Z,98787.63
2023-03-08T10:40:28.939Z,98776.78
2023-03-08T10:43:01.178Z,98775.72
2023-03-08T10:45:29.862Z,98782.75
2023-03-08T10:48:00.308Z,98771.09
2023-03-08T10:50:29.247Z,98770.28
2023-03-08T10:52:57.453Z,98767.56
2023-03-08T10:55:27.504Z,98766.47
2023-03-08T10:57:56.281Z,98753.19
2023-03-08T11:00:34.625Z,98749.41
2023-03-08T11:03:14.518Z,98741.53
2023-03-08T11:05:52.014Z,98731.50
2023-03-08T11:08:21.198Z,98736.91
2023-03-08T11:10:49.426Z,98732.56
2023-03-08T11:13:22.811Z,98665.66
2023-03-08T11:15:52.997Z,98726.06
2023-03-08T11:18:27.197Z,98731.50
2023-03-08T11:20:56.750Z,98733.63
2023-03-08T11:23:26.989Z,98735.28
2023-03-08T11:25:57.285Z,98743.41
2023-03-08T11:28:38.873Z,98733.38
2023-03-08T11:31:15.737Z,98723.59
2023-03-08T11:34:04.766Z,98725.25
2023-03-08T11:36:35.921Z,98722.53
2023-03-08T11:39:05.933Z,98696.19
2023-03-08T11:41:40.047Z,98686.09
2023-03-08T11:44:18.390Z,98711.44
2023-03-08T11:46:54.880Z,98556.03
2023-03-08T11:49:37.530Z,98716.28
2023-03-08T11:52:09.211Z,98699.16
2023-03-08T11:54:59.803Z,98734.22
2023-03-08T11:57:28.893Z,98719.25
2023-03-08T11:59:57.900Z,98712.50
2023-03-08T12:02:28.293Z,98681.50
2023-03-08T12:05:01.668Z,98715.22
2023-03-08T12:07:32.728Z,98711.44
2023-03-08T12:10:02.193Z,98716.03
2023-03-08T12:12:32.046Z,98707.09
2023-03-08T12:15:02.912Z,98698.94
2023-03-08T12:17:32.757Z,98695.16
2023-03-08T12:20:02.071Z,98700.59
2023-03-08T12:22:42.660Z,98705.19
2023-03-08T12:25:14.325Z,98685.34
2023-03-08T12:27:45.286Z,98686.19
2023-03-08T12:30:18.037Z,98665.25
2023-03-08T12:32:46.298Z,98687.03
2023-03-08T12:35:30.033Z,98687.81
2023-03-08T12:38:01.486Z,98674.25
2023-03-08T12:40:32.437Z,98668.03
2023-03-08T12:43:08.550Z,98675.88
2023-03-08T12:45:36.487Z,98680.50
2023-03-08T12:48:17.762Z,98672.34
2023-03-08T12:50:57.568Z,98674.00
2023-03-08T12:53:31.723Z,98667.75
2023-03-08T12:56:04.356Z,98663.97
2023-03-08T12:58:32.272Z,98660.16
2023-03-08T13:01:01.340Z,98661.50
2023-03-08T13:03:30.587Z,98654.19
2023-03-08T13:05:59.901Z,98663.13
2023-03-08T13:08:32.780Z,98662.06
2023-03-08T13:11:11.298Z,98655.00
2023-03-08T13:13:43.131Z,98651.47
2023-03-08T13:16:33.260Z,98654.75
2023-03-08T13:19:23.145Z,98648.75
2023-03-08T13:21:55.137Z,98656.63
2023-03-08T13:24:32.072Z,98642.78
2023-03-08T13:27:14.613Z,98646.03
2023-03-08T13:29:43.346Z,98640.63
2023-03-08T13:32:18.139Z,98642.25
2023-03-08T13:34:47.123Z,98650.41
2023-03-08T13:37:23.289Z,98639.28
2023-03-08T13:39:54.282Z,98634.41
2023-03-08T13:42:24.867Z,98634.41
2023-03-08T13:44:53.060Z,98617.03
2023-03-08T13:47:25.694Z,98632.50
2023-03-08T13:49:54.681Z,98632.78
2023-03-08T13:52:24.850Z,98616.19
2023-03-08T13:54:54.244Z,98613.72
2023-03-08T13:57:23.642Z,98631.97
2023-03-08T13:59:52.178Z,98610.28
2023-03-08T14:02:22.632Z,98603.22
2023-03-08T14:04:50.577Z,98600.50
2023-03-08T14:07:22.490Z,98619.47
2023-03-08T14:09:51.877Z,98625.72
2023-03-08T14:12:20.760Z,98624.91
2023-03-08T14:14:50.322Z,98617.59
2023-03-08T14:17:23.675Z,98628.44
2023-03-08T14:19:55.714Z,98623.84
2023-03-08T14:22:38.199Z,98616.50
2023-03-08T14:25:22.813Z,98612.97
2023-03-08T14:27:50.755Z,98601.03
2023-03-08T14:30:19.567Z,98594.00
2023-03-08T14:33:06.266Z,98584.75
2023-03-08T14:35:35.067Z,98591.00
2023-03-08T14:38:03.953Z,98585.56
2023-03-08T14:40:35.344Z,98592.88
2023-03-08T14:43:04.868Z,98595.88
2023-03-08T14:45:36.883Z,98596.69
2023-03-08T14:48:17.805Z,98597.25
2023-03-08T14:50:53.971Z,98593.72
2023-03-08T14:53:32.531Z,98597.25
2023-03-08T14:56:02.611Z,98593.44
2023-03-08T14:58:31.673Z,98591.81
2023-03-08T15:01:01.137Z,98593.72
2023-03-08T15:03:29.301Z,98583.66
2023-03-08T15:05:57.220Z,98580.97
2023-03-08T15:08:25.461Z,98585.56
2023-03-08T15:10:53.383Z,98584.75
2023-03-08T15:13:24.109Z,98587.47
2023-03-08T15:15:52.107Z,98583.97
2023-03-08T15:18:20.889Z,98591.81
2023-03-08T15:20:49.843Z,98583.66
2023-03-08T15:23:20.158Z,98589.09
2023-03-08T15:25:48.106Z,98572.00
2023-03-08T15:28:17.024Z,98582.03
2023-03-08T15:30:46.627Z,98580.16
2023-03-08T15:33:14.682Z,98579.06
2023-03-08T15:35:42.706Z,98590.16
2023-03-08T15:38:12.457Z,98582.84
2023-03-08T15:40:40.669Z,98580.16
2023-03-08T15:43:08.700Z,98577.44
2023-03-08T15:45:36.691Z,98580.97
2023-03-08T15:48:06.850Z,98577.72
2023-03-08T15:50:34.979Z,98581.25
2023-03-08T15:53:03.692Z,98582.84
2023-03-08T15:55:32.681Z,98589.09
2023-03-08T15:58:00.618Z,98586.38
2023-03-08T16:00:28.762Z,98595.59
2023-03-08T16:02:57.102Z,98593.72
2023-03-08T16:05:26.731Z,98592.34
2023-03-08T16:07:55.377Z,98593.72
2023-03-08T16:10:23.332Z,98606.44
2023-03-08T16:12:51.818Z,98609.16
2023-03-08T16:15:19.844Z,98605.66
2023-03-08T16:17:47.882Z,98602.94
2023-03-08T16:20:16.220Z,98606.44
2023-03-08T16:22:46.287Z,98598.06
2023-03-08T16:25:14.329Z,98597.25
2023-03-08T16:27:42.254Z,98595.34
2023-03-08T16:30:14.048Z,98598.06
2023-03-08T16:32:41.989Z,98599.13
2023-03-08T16:35:10.333Z,98602.94
2023-03-08T16:37:38.299Z,98604.56
2023-03-08T16:40:09.274Z,98599.13
2023-03-08T16:42:37.207Z,98607.25
2023-03-08T16:45:07.233Z,98590.16
2023-03-08T16:47:35.168Z,98592.88
2023-03-08T16:50:03.140Z,98581.25
2023-03-08T16:52:31.390Z,98586.69
2023-03-08T16:54:59.299Z,98592.09
2023-03-08T16:57:28.659Z,98594.81
2023-03-08T16:59:56.754Z,98584.75
2023-03-08T17:02:25.010Z,98580.44
2023-03-08T17:04:52.938Z,98580.44
2023-03-08T17:07:20.867Z,98576.63
2023-03-08T17:09:50.590Z,98575.00
2023-03-08T17:12:19.505Z,98563.59
2023-03-08T17:14:48.813Z,98578.25
2023-03-08T17:17:16.728Z,98574.47
2023-03-08T17:19:44.841Z,98553.28
2023-03-08T17:22:12.844Z,98570.66
2023-03-08T17:24:41.302Z,98572.31
2023-03-08T17:27:09.202Z,98569.84
2023-03-08T17:29:37.344Z,98578.81
2023-03-08T17:32:07.657Z,98571.75
2023-03-08T17:34:35.642Z,98569.03
2023-03-08T17:37:03.615Z,98564.66
2023-03-08T17:39:31.772Z,98569.28
2023-03-08T17:41:59.977Z,98564.69
2023-03-08T17:44:27.923Z,98562.78
2023-03-08T17:46:55.817Z,98567.41
2023-03-08T17:49:25.305Z,98567.41
2023-03-08T17:51:53.557Z,98570.94
2023-03-08T17:54:21.680Z,98573.63
2023-03-08T17:56:49.590Z,98577.44
2023-03-08T17:59:17.934Z,98577.44
2023-03-08T18:01:46.184Z,98582.84
2023-03-08T18:04:14.155Z,98576.63
2023-03-08T18:06:43.808Z,98582.84
2023-03-08T18:09:12.927Z,98577.44
2023-03-08T18:11:41.405Z,98582.84
2023-03-08T18:14:10.282Z,98584.75
2023-03-08T18:16:38.331Z,98577.72
2023-03-08T18:19:06.433Z,98575.81
2023-03-08T18:21:35.247Z,98578.53
2023-03-08T18:24:05.288Z,98580.16
2023-03-08T18:26:33.258Z,98583.66
2023-03-08T18:29:01.220Z,98582.31
2023-03-08T18:31:31.062Z,98567.94
2023-03-08T18:33:59.187Z,98561.44
2023-03-08T18:36:27.132Z,98566.56
2023-03-08T18:38:55.080Z,98572.00
2023-03-08T18:41:25.666Z,98570.41
2023-03-08T18:43:54.606Z,98562.50
2023-03-08T18:46:28.420Z,98566.56
2023-03-08T18:48:56.485Z,98564.97
2023-03-08T18:51:24.661Z,98567.69
2023-03-08T18:53:52.589Z,98574.72
2023-03-08T18:56:20.592Z,98575.81
2023-03-08T18:58:49.999Z,98567.69
2023-03-08T19:01:17.973Z,98568.47
2023-03-08T19:03:46.116Z,98577.44
2023-03-08T19:06:14.119Z,98567.69
2023-03-08T19:08:42.080Z,98572.00
2023-03-08T19:11:13.634Z,98570.09
2023-03-08T19:13:41.624Z,98568.47
2023-03-08T19:16:18.418Z,98569.28
2023-03-08T19:18:46.462Z,98560.34
2023-03-08T19:21:18.553Z,98551.41
2023-03-08T19:23:46.508Z,98551.94
2023-03-08T19:26:31.878Z,98551.94
2023-03-08T19:29:00.575Z,98555.72
2023-03-08T19:31:30.030Z,98550.31
2023-03-08T19:33:57.998Z,98545.69
2023-03-08T19:36:25.934Z,98546.50
2023-03-08T19:38:53.871Z,98554.66
2023-03-08T19:41:21.865Z,98554.91
2023-03-08T19:43:49.773Z,98556.53
2023-03-08T19:46:18.502Z,98554.66
2023-03-08T19:48:48.413Z,98567.41
2023-03-08T19:51:17.189Z,98561.97
2023-03-08T19:53:45.476Z,98541.09
2023-03-08T19:56:16.688Z,98541.09
2023-03-08T19:58:44.680Z,98541.34
2023-03-08T20:01:14.108Z,98543.81
2023-03-08T20:03:42.668Z,98545.44
2023-03-08T20:06:12.142Z,98545.44
2023-03-08T20:08:40.499Z,98556.03
2023-03-08T20:11:08.694Z,98540.00
2023-03-08T20:13:36.572Z,98545.19
2023-03-08T20:16:04.577Z,98531.88
2023-03-08T20:18:32.592Z,98532.69
2023-03-08T20:21:02.186Z,98540.81
2023-03-08T20:23:32.340Z,98540.00
2023-03-08T20:26:00.274Z,98535.41
2023-03-08T20:28:28.202Z,98528.09
2023-03-08T20:30:56.471Z,98532.69
2023-03-08T20:33:24.406Z,98523.72
2023-03-08T20:35:59.002Z,98531.88
2023-03-08T20:38:27.088Z,98534.59
2023-03-08T20:41:03.980Z,98536.47
2023-03-08T20:43:32.047Z,98536.22
2023-03-08T20:46:05.810Z,98529.16
2023-03-08T20:48:33.864Z,98527.25
2023-03-08T20:51:02.374Z,98532.69
2023-03-08T20:53:30.674Z,98532.69
2023-03-08T20:55:58.775Z,98535.41
2023-03-08T20:58:28.082Z,98521.03
2023-03-08T21:00:56.275Z,98535.41
2023-03-08T21:03:24.195Z,98521.84
2023-03-08T21:05:52.101Z,98541.66
2023-03-08T21:08:20.613Z,98531.06
2023-03-08T21:10:48.812Z,98533.78
2023-03-08T21:13:16.726Z,98523.72
2023-03-08T21:15:47.008Z,98519.38
2023-03-08T21:18:15.034Z,98521.84
2023-03-08T21:20:44.848Z,98518.31
2023-03-08T21:23:12.901Z,98517.22
2023-03-08T21:25:40.849Z,98511.00
2023-03-08T21:28:08.778Z,98508.28
2023-03-08T21:30:37.050Z,98506.63
2023-03-08T21:33:06.553Z,98504.75
2023-03-08T21:35:39.003Z,98498.50
2023-03-08T21:38:07.019Z,98495.78
2023-03-08T21:40:37.181Z,98490.38
2023-03-08T21:43:05.123Z,98470.56
2023-03-08T21:45:33.013Z,98473.28
2023-03-08T21:48:00.915Z,98471.38
2023-03-08T21:50:30.430Z,98472.19
2023-03-08T21:52:58.579Z,98466.22
2023-03-08T21:55:26.492Z,98467.84
2023-03-08T21:57:54.449Z,98470.56
2023-03-08T22:00:22.347Z,98464.31
2023-03-08T22:02:53.584Z,98462.41
2023-03-08T22:05:22.645Z,98452.38
2023-03-08T22:07:51.936Z,98449.94
2023-03-08T22:10:20.327Z,98449.94
2023-03-08T22:12:48.586Z,98443.69
2023-03-08T22:15:16.733Z,98442.91
2023-03-08T22:17:44.631Z,98438.25
2023-03-08T22:20:13.209Z,98429.34
2023-03-08T22:22:41.526Z,98427.41
2023-03-08T22:25:11.509Z,98421.22
2023-03-08T22:27:39.501Z,98426.63
2023-03-08T22:30:10.846Z,98415.78
2023-03-08T22:32:40.147Z,98411.13
2023-03-08T22:35:08.796Z,98404.94
2023-03-08T22:37:36.733Z,98409.53
2023-03-08T22:40:06.469Z,98401.41
2023-03-08T22:42:36.040Z,98403.00
2023-03-08T22:45:04.020Z,98405.72
2023-03-08T22:47:31.931Z,98413.84
2023-03-08T22:49:59.830Z,98414.66
2023-03-08T22:52:27.991Z,98402.22
2023-03-08T22:54:55.957Z,98396.78
2023-03-08T22:57:23.854Z,98382.13
2023-03-08T22:59:55.646Z,98386.47
2023-03-08T23:02:24.000Z,98372.38
2023-03-08T23:04:51.959Z,98377.50
2023-03-08T23:07:19.878Z,98374.81
2023-03-08T23:09:47.786Z,98375.88
2023-03-08T23:12:15.981Z,98381.03
2023-03-08T23:14:45.386Z,98373.16
2023-03-08T23:17:14.729Z,98362.59
2023-03-08T23:19:45.065Z,98373.97
2023-03-08T23:22:13.302Z,98394.88
2023-03-08T23:24:41.180Z,98398.41
2023-03-08T23:27:09.165Z,98389.44
2023-03-08T23:29:37.099Z,98377.50
2023-03-08T23:32:05.725Z,98352.56
2023-03-08T23:34:35.108Z,98355.00
2023-03-08T23:37:04.204Z,98356.09
2023-03-08T23:39:32.103Z,98359.59
2023-03-08T23:42:00.320Z,98355.28
2023-03-08T23:44:28.191Z,98352.56
2023-03-08T23:46:56.111Z,98347.16
2023-03-08T23:49:24.061Z,98349.88
2023-03-08T23:51:53.346Z,98343.63
2023-03-08T23:54:21.254Z,98341.72
2023-03-08T23:56:49.206Z,98359.09
2023-03-08T23:59:18.847Z,98378.88
